KPGA/PGA METAR and TAF weather

Enter ICAO airport designator
Station Type Date Time Source
KPGA METAR 2021/07/29 06:53 UTC NOAA

KPGA 290653Z AUTO 21005KT 10SM CLR 29/11 A3010 RMK AO2 SLP116 T02940111 403720250


Station Type Date Time Source
KPGA Decoded METAR 2021/07/29 06:53 UTC NOAA

PAGE MUNICIPAL AIRPORT, AZ, United States (KPGA) 36-56N 111-27W 1307M
Jul 29, 2021 - 02:53 AM EDT / 2021.07.29 0653 UTC
Wind: from the SSW (210 degrees) at 6 MPH (5 KT):0
Visibility: 10 mile(s):0
Sky conditions: clear
Temperature: 84.9 F (29.4 C)
Dew Point: 52.0 F (11.1 C)
Relative Humidity: 32%
Pressure (altimeter): 30.1 in. Hg (1019 hPa)
ob: KPGA 290653Z AUTO 21005KT 10SM CLR 29/11 A3010 RMK AO2 SLP116 T02940111 403720250
cycle: 7

Station Type Date Time Source
KPGA TAF 2021/07/29 06:33 UTC NOAA

TAF KPGA 290531Z 2906/3006 VRB04KT P6SM SCT100 BKN250 PROB30 2922/2924 5SM TSRA BKN080CB
FM300000 18007KT 6SM -SHRA VCTS SCT100CB BKN120
FM300200 24009G19KT 6SM -SHRA VCTS SCT070CB BKN100
FM300300 23007KT 6SM -SHRA SCT070 OVC100 PROB30 3003/3006 5SM TS BKN050CB BKN060

Example: see airport list